createdAt,value
2023-05-14T00:00:43.326Z,22.43
2023-05-14T00:03:12.705Z,22.42
2023-05-14T00:05:42.180Z,22.40
2023-05-14T00:08:11.236Z,22.39
2023-05-14T00:10:39.480Z,22.37
2023-05-14T00:13:08.698Z,22.36
2023-05-14T00:15:37.981Z,22.35
2023-05-14T00:18:07.472Z,22.34
2023-05-14T00:20:36.733Z,22.34
2023-05-14T00:23:05.225Z,22.33
2023-05-14T00:25:33.129Z,22.33
2023-05-14T00:28:01.336Z,22.32
2023-05-14T00:30:29.693Z,22.31
2023-05-14T00:32:58.989Z,22.31
2023-05-14T00:35:28.443Z,22.30
2023-05-14T00:37:57.455Z,22.29
2023-05-14T00:40:26.391Z,22.29
2023-05-14T00:42:54.915Z,22.30
2023-05-14T00:45:23.765Z,22.28
2023-05-14T00:47:52.120Z,22.27
2023-05-14T00:50:21.222Z,22.25
2023-05-14T00:52:50.186Z,22.26
2023-05-14T00:55:18.774Z,22.24
2023-05-14T00:57:47.093Z,22.24
2023-05-14T01:00:16.471Z,22.23
2023-05-14T01:02:45.048Z,22.23
2023-05-14T01:05:13.951Z,22.22
2023-05-14T01:07:42.428Z,22.22
2023-05-14T01:10:10.890Z,22.22
2023-05-14T01:12:39.864Z,22.20
2023-05-14T01:15:08.141Z,22.20
2023-05-14T01:17:37.510Z,22.20
2023-05-14T01:20:06.321Z,22.19
2023-05-14T01:22:35.189Z,22.18
2023-05-14T01:25:04.449Z,22.17
2023-05-14T01:27:33.792Z,22.17
2023-05-14T01:30:03.316Z,22.15
2023-05-14T01:32:31.839Z,22.15
2023-05-14T01:35:00.773Z,22.14
2023-05-14T01:37:30.151Z,22.13
2023-05-14T01:39:58.837Z,22.12
2023-05-14T01:42:27.450Z,22.12
2023-05-14T01:44:56.398Z,22.13
2023-05-14T01:47:25.438Z,22.12
2023-05-14T01:49:53.826Z,22.11
2023-05-14T01:52:22.773Z,22.11
2023-05-14T01:54:51.678Z,22.09
2023-05-14T01:57:21.012Z,22.08
2023-05-14T01:59:49.369Z,22.08
2023-05-14T02:02:18.145Z,22.08
2023-05-14T02:04:46.919Z,22.07
2023-05-14T02:07:15.422Z,22.07
2023-05-14T02:09:44.408Z,22.05
2023-05-14T02:12:13.362Z,22.05
2023-05-14T02:14:42.776Z,22.06
2023-05-14T02:17:12.170Z,22.03
2023-05-14T02:19:41.058Z,22.03
2023-05-14T02:22:10.012Z,22.02
2023-05-14T02:24:39.111Z,22.02
2023-05-14T02:27:07.919Z,22.01
2023-05-14T02:29:35.481Z,22.00
2023-05-14T02:32:03.711Z,22.00
2023-05-14T02:34:32.024Z,21.98
2023-05-14T02:37:01.209Z,21.98
2023-05-14T02:39:30.157Z,21.97
2023-05-14T02:41:59.538Z,21.96
2023-05-14T02:44:27.909Z,21.97
2023-05-14T02:46:57.275Z,21.96
2023-05-14T02:49:25.739Z,21.95
2023-05-14T02:51:54.641Z,21.94
2023-05-14T02:54:23.638Z,21.93
2023-05-14T02:56:52.613Z,21.93
2023-05-14T02:59:21.096Z,21.91
2023-05-14T03:01:50.045Z,21.92
2023-05-14T03:04:19.357Z,21.91
2023-05-14T03:06:48.307Z,21.91
2023-05-14T03:09:17.351Z,21.89
2023-05-14T03:11:46.152Z,21.88
2023-05-14T03:14:15.365Z,21.88
2023-05-14T03:16:44.200Z,21.87
2023-05-14T03:19:12.905Z,21.86
2023-05-14T03:21:41.371Z,21.85
2023-05-14T03:24:09.779Z,21.84
2023-05-14T03:26:38.985Z,21.83
2023-05-14T03:29:08.986Z,21.84
2023-05-14T03:31:37.901Z,21.82
2023-05-14T03:34:06.943Z,21.82
2023-05-14T03:36:36.367Z,21.81
2023-05-14T03:39:05.368Z,21.82
2023-05-14T03:41:34.063Z,21.81
2023-05-14T03:44:02.728Z,21.80
2023-05-14T03:46:31.509Z,21.80
2023-05-14T03:49:00.919Z,21.80
2023-05-14T03:51:29.758Z,21.80
2023-05-14T03:53:59.086Z,21.79
2023-05-14T03:56:28.620Z,21.79
2023-05-14T03:58:56.976Z,21.79
2023-05-14T04:01:25.389Z,21.79
2023-05-14T04:03:54.528Z,21.79
2023-05-14T04:06:23.542Z,21.79
2023-05-14T04:08:52.837Z,21.78
2023-05-14T04:11:21.705Z,21.78
2023-05-14T04:13:50.543Z,21.78
2023-05-14T04:16:19.430Z,21.78
2023-05-14T04:18:47.772Z,21.80
2023-05-14T04:21:16.637Z,21.79
2023-05-14T04:23:46.006Z,21.80
2023-05-14T04:26:15.264Z,21.80
2023-05-14T04:28:44.601Z,21.81
2023-05-14T04:31:13.831Z,21.82
2023-05-14T04:33:42.968Z,21.82
2023-05-14T04:36:11.835Z,21.84
2023-05-14T04:38:41.118Z,21.85
2023-05-14T04:41:10.360Z,21.86
2023-05-14T04:43:39.656Z,21.87
2023-05-14T04:46:08.519Z,21.89
2023-05-14T04:48:37.776Z,21.89
2023-05-14T04:51:07.244Z,21.90
2023-05-14T04:53:36.775Z,21.92
2023-05-14T04:56:05.303Z,21.93
2023-05-14T04:58:35.086Z,21.93
2023-05-14T05:01:03.736Z,21.94
2023-05-14T05:03:32.396Z,21.96
2023-05-14T05:06:01.222Z,21.96
2023-05-14T05:08:30.137Z,21.98
2023-05-14T05:10:58.978Z,21.98
2023-05-14T05:13:28.254Z,22.01
2023-05-14T05:15:57.595Z,22.01
2023-05-14T05:18:26.300Z,22.04
2023-05-14T05:20:55.205Z,22.07
2023-05-14T05:23:24.650Z,22.10
2023-05-14T05:25:53.186Z,22.12
2023-05-14T05:28:21.353Z,22.15
2023-05-14T05:30:50.737Z,22.18
2023-05-14T05:33:19.252Z,22.21
2023-05-14T05:35:47.933Z,22.23
2023-05-14T05:38:16.745Z,22.28
2023-05-14T05:40:46.043Z,22.31
2023-05-14T05:43:14.818Z,22.33
2023-05-14T05:45:44.255Z,22.36
2023-05-14T05:48:12.789Z,22.41
2023-05-14T05:50:41.537Z,22.45
2023-05-14T05:53:10.340Z,22.49
2023-05-14T05:55:39.696Z,22.53
2023-05-14T05:58:08.995Z,22.56
2023-05-14T06:00:37.554Z,22.56
2023-05-14T06:03:05.936Z,22.57
2023-05-14T06:05:33.974Z,22.58
2023-05-14T06:08:02.150Z,22.58
2023-05-14T06:10:31.539Z,22.59
2023-05-14T06:13:00.835Z,22.60
2023-05-14T06:15:30.227Z,22.63
2023-05-14T06:17:59.654Z,22.64
2023-05-14T06:20:28.308Z,22.67
2023-05-14T06:22:56.598Z,22.69
2023-05-14T06:25:24.812Z,22.71
2023-05-14T06:27:54.014Z,22.76
2023-05-14T06:30:23.546Z,22.80
2023-05-14T06:32:52.467Z,22.83
2023-05-14T06:35:20.564Z,22.87
2023-05-14T06:37:49.904Z,22.92
2023-05-14T06:40:19.169Z,22.94
2023-05-14T06:42:48.386Z,22.99
2023-05-14T06:45:17.785Z,23.03
2023-05-14T06:47:47.138Z,23.07
2023-05-14T06:50:16.319Z,23.12
2023-05-14T06:52:45.600Z,23.17
2023-05-14T06:55:14.403Z,23.23
2023-05-14T06:57:43.248Z,23.30
2023-05-14T07:00:12.104Z,23.36
2023-05-14T07:02:40.688Z,23.42
2023-05-14T07:05:09.280Z,23.46
2023-05-14T07:07:38.154Z,23.51
2023-05-14T07:10:06.979Z,23.56
2023-05-14T07:12:36.054Z,23.60
2023-05-14T07:15:04.268Z,23.62
2023-05-14T07:17:33.120Z,23.64
2023-05-14T07:20:01.677Z,23.67
2023-05-14T07:22:31.666Z,23.71
2023-05-14T07:25:03.059Z,23.75
2023-05-14T07:27:32.949Z,23.79
2023-05-14T07:30:02.205Z,23.83
2023-05-14T07:32:31.092Z,23.88
2023-05-14T07:34:59.911Z,23.90
2023-05-14T07:37:29.536Z,23.95
2023-05-14T07:39:58.876Z,24.00
2023-05-14T07:42:35.907Z,24.03
2023-05-14T07:45:06.124Z,24.08
2023-05-14T07:47:35.070Z,24.13
2023-05-14T07:50:04.572Z,24.26
2023-05-14T07:52:33.406Z,24.38
2023-05-14T07:55:02.703Z,24.46
2023-05-14T07:57:32.016Z,24.49
2023-05-14T08:00:01.330Z,24.64
2023-05-14T08:02:40.449Z,24.76
2023-05-14T08:05:09.883Z,24.89
2023-05-14T08:07:38.474Z,25.00
2023-05-14T08:10:06.594Z,25.12
2023-05-14T08:12:35.520Z,25.24
2023-05-14T08:15:03.684Z,25.33
2023-05-14T08:17:32.455Z,25.42
2023-05-14T08:20:02.755Z,25.48
2023-05-14T08:22:32.964Z,25.56
2023-05-14T08:25:01.689Z,25.66
2023-05-14T08:27:30.496Z,25.76
2023-05-14T08:29:59.270Z,25.92
2023-05-14T08:32:28.072Z,26.15
2023-05-14T08:34:57.394Z,26.44
2023-05-14T08:37:26.836Z,26.62
2023-05-14T08:39:55.800Z,26.84
2023-05-14T08:42:25.104Z,27.16
2023-05-14T08:44:54.468Z,27.52
2023-05-14T08:47:23.758Z,27.89
2023-05-14T08:49:52.220Z,28.23
2023-05-14T08:52:20.991Z,28.57
2023-05-14T08:54:49.807Z,28.92
2023-05-14T08:57:18.680Z,29.26
2023-05-14T08:59:47.900Z,29.56
2023-05-14T09:02:17.292Z,29.81
2023-05-14T09:04:46.746Z,30.07
2023-05-14T09:07:15.446Z,30.29
2023-05-14T09:09:43.741Z,30.51
2023-05-14T09:12:13.049Z,30.76
2023-05-14T09:14:42.303Z,30.98
2023-05-14T09:17:11.606Z,31.17
2023-05-14T09:19:41.033Z,31.37
2023-05-14T09:22:09.987Z,31.49
2023-05-14T09:24:39.268Z,31.67
2023-05-14T09:27:08.590Z,31.83
2023-05-14T09:29:38.206Z,32.02
2023-05-14T09:32:07.060Z,32.15
2023-05-14T09:34:35.791Z,32.29
2023-05-14T09:37:04.691Z,32.42
2023-05-14T09:39:33.990Z,32.56
2023-05-14T09:42:03.051Z,32.71
2023-05-14T09:44:31.679Z,32.83
2023-05-14T09:47:00.669Z,32.97
2023-05-14T09:49:29.389Z,33.11
2023-05-14T09:51:58.708Z,33.30
2023-05-14T09:54:27.973Z,33.45
2023-05-14T09:56:56.777Z,33.62
2023-05-14T09:59:25.764Z,33.80
2023-05-14T10:01:55.073Z,33.97
2023-05-14T10:04:24.486Z,34.09
2023-05-14T10:06:53.831Z,34.24
2023-05-14T10:09:22.641Z,34.36
2023-05-14T10:11:51.498Z,34.50
2023-05-14T10:14:20.798Z,34.59
2023-05-14T10:16:50.265Z,34.73
2023-05-14T10:19:19.459Z,34.86
2023-05-14T10:21:49.007Z,35.00
2023-05-14T10:24:18.087Z,35.18
2023-05-14T10:26:46.878Z,35.31
2023-05-14T10:29:16.178Z,35.43
2023-05-14T10:31:45.474Z,35.58
2023-05-14T10:34:14.788Z,35.67
2023-05-14T10:36:43.650Z,35.82
2023-05-14T10:39:12.900Z,35.94
2023-05-14T10:41:42.209Z,36.05
2023-05-14T10:44:11.052Z,36.18
2023-05-14T10:46:39.979Z,36.32
2023-05-14T10:49:08.871Z,36.45
2023-05-14T10:51:37.995Z,36.51
2023-05-14T10:54:06.348Z,36.59
2023-05-14T10:56:35.645Z,36.64
2023-05-14T10:59:05.065Z,36.71
2023-05-14T11:01:34.569Z,36.87
2023-05-14T11:04:04.009Z,36.98
2023-05-14T11:06:33.360Z,37.12
2023-05-14T11:09:01.958Z,37.20
2023-05-14T11:11:30.639Z,37.27
2023-05-14T11:13:59.871Z,37.16
2023-05-14T11:16:29.136Z,36.95
2023-05-14T11:18:58.550Z,36.96
2023-05-14T11:21:27.611Z,36.95
2023-05-14T11:23:56.980Z,36.94
2023-05-14T11:26:26.324Z,36.97
2023-05-14T11:28:55.669Z,37.02
2023-05-14T11:31:24.546Z,36.85
2023-05-14T11:33:53.687Z,36.73
2023-05-14T11:36:22.397Z,36.18
2023-05-14T11:38:51.156Z,35.92
2023-05-14T11:41:20.472Z,35.75
2023-05-14T11:43:49.936Z,35.54
2023-05-14T11:46:19.294Z,35.31
2023-05-14T11:48:47.920Z,34.95
2023-05-14T11:51:16.166Z,34.34
2023-05-14T11:53:45.625Z,33.66
2023-05-14T11:56:14.949Z,33.07
2023-05-14T11:58:44.314Z,32.52
2023-05-14T12:01:13.430Z,32.01
2023-05-14T12:03:42.349Z,31.63
2023-05-14T12:06:11.823Z,31.48
2023-05-14T12:08:40.694Z,31.51
2023-05-14T12:11:09.776Z,31.66
2023-05-14T12:13:38.680Z,31.95
2023-05-14T12:16:07.472Z,32.35
2023-05-14T12:18:37.109Z,32.65
2023-05-14T12:21:06.097Z,32.82
2023-05-14T12:23:36.495Z,32.95
2023-05-14T12:26:07.745Z,32.99
2023-05-14T12:28:38.888Z,32.78
2023-05-14T12:31:10.217Z,32.35
2023-05-14T12:33:41.448Z,31.85
2023-05-14T12:38:53.397Z,30.82
2023-05-14T12:41:22.874Z,30.33
2023-05-14T12:43:50.689Z,29.94
2023-05-14T12:46:20.607Z,29.61
2023-05-14T12:48:53.156Z,29.31
2023-05-14T12:51:22.270Z,29.05
2023-05-14T12:53:50.802Z,28.77
2023-05-14T12:56:20.614Z,28.59
2023-05-14T12:58:51.927Z,28.47
2023-05-14T13:01:21.491Z,28.82
2023-05-14T13:03:49.688Z,28.86
2023-05-14T13:06:18.823Z,28.72
2023-05-14T13:08:48.185Z,28.76
2023-05-14T13:11:17.659Z,28.78
2023-05-14T13:13:47.044Z,28.62
2023-05-14T13:16:16.051Z,28.41
2023-05-14T13:18:44.763Z,28.22
2023-05-14T13:21:13.887Z,28.06
2023-05-14T13:23:42.190Z,27.94
2023-05-14T13:26:11.150Z,27.80
2023-05-14T13:28:39.985Z,27.75
2023-05-14T13:31:09.631Z,27.76
2023-05-14T13:33:38.604Z,28.04
2023-05-14T13:36:07.983Z,28.60
2023-05-14T13:38:36.947Z,28.91
2023-05-14T13:41:05.555Z,29.08
2023-05-14T13:43:34.383Z,29.11
2023-05-14T13:46:03.234Z,29.05
2023-05-14T13:48:32.632Z,28.86
2023-05-14T13:51:01.758Z,28.64
2023-05-14T13:53:29.954Z,28.44
2023-05-14T13:55:58.832Z,28.26
2023-05-14T13:58:27.617Z,28.13
2023-05-14T14:00:56.905Z,28.07
2023-05-14T14:03:26.357Z,28.06
2023-05-14T14:05:55.611Z,28.04
2023-05-14T14:08:24.927Z,27.99
2023-05-14T14:10:54.351Z,27.88
2023-05-14T14:13:23.271Z,27.78
2023-05-14T14:15:52.796Z,27.66
2023-05-14T14:18:21.680Z,27.59
2023-05-14T14:20:50.886Z,27.54
2023-05-14T14:23:19.736Z,27.47
2023-05-14T14:25:49.044Z,27.38
2023-05-14T14:28:18.233Z,27.27
2023-05-14T14:30:47.488Z,27.17
2023-05-14T14:33:16.850Z,27.04
2023-05-14T14:35:45.603Z,26.94
2023-05-14T14:38:14.924Z,26.82
2023-05-14T14:40:44.260Z,26.71
2023-05-14T14:43:13.456Z,26.61
2023-05-14T14:45:42.659Z,26.55
2023-05-14T14:48:11.932Z,26.47
2023-05-14T14:50:40.764Z,26.40
2023-05-14T14:53:09.954Z,26.37
2023-05-14T14:55:39.211Z,26.37
2023-05-14T14:58:08.660Z,26.38
2023-05-14T15:00:37.915Z,26.41
2023-05-14T15:03:07.331Z,26.43
2023-05-14T15:05:36.302Z,26.38
2023-05-14T15:08:05.687Z,26.30
2023-05-14T15:10:34.980Z,26.17
2023-05-14T15:13:04.065Z,26.04
2023-05-14T15:15:32.749Z,25.89
2023-05-14T15:18:02.125Z,25.76
2023-05-14T15:20:31.240Z,25.66
2023-05-14T15:22:59.144Z,25.56
2023-05-14T15:25:27.549Z,25.46
2023-05-14T15:27:55.661Z,25.37
2023-05-14T15:30:24.586Z,25.31
2023-05-14T15:32:53.898Z,25.24
2023-05-14T15:35:23.099Z,25.18
2023-05-14T15:37:52.028Z,25.13
2023-05-14T15:40:21.299Z,25.08
2023-05-14T15:42:50.719Z,25.03
2023-05-14T15:45:20.253Z,25.00
2023-05-14T15:47:49.226Z,24.98
2023-05-14T15:50:18.565Z,24.93
2023-05-14T15:52:47.832Z,24.90
2023-05-14T15:55:17.021Z,24.87
2023-05-14T15:57:46.499Z,24.85
2023-05-14T16:00:15.877Z,24.85
2023-05-14T16:02:44.854Z,24.83
2023-05-14T16:05:14.324Z,24.80
2023-05-14T16:07:43.314Z,24.79
2023-05-14T16:10:12.693Z,24.78
2023-05-14T16:12:42.235Z,24.74
2023-05-14T16:15:11.196Z,24.71
2023-05-14T16:17:40.064Z,24.67
2023-05-14T16:20:08.829Z,24.63
2023-05-14T16:22:38.090Z,24.60
2023-05-14T16:25:07.117Z,24.55
2023-05-14T16:27:36.568Z,24.51
2023-05-14T16:30:05.520Z,24.46
2023-05-14T16:32:34.170Z,24.44
2023-05-14T16:35:03.591Z,24.41
2023-05-14T16:37:32.486Z,24.37
2023-05-14T16:40:01.950Z,24.35
2023-05-14T16:42:30.713Z,24.34
2023-05-14T16:44:59.424Z,24.31
2023-05-14T16:47:28.548Z,24.28
2023-05-14T16:49:57.244Z,24.26
2023-05-14T16:52:26.159Z,24.24
2023-05-14T16:54:55.437Z,24.22
2023-05-14T16:57:24.612Z,24.20
2023-05-14T16:59:54.539Z,24.17
2023-05-14T17:02:23.726Z,24.17
2023-05-14T17:04:52.575Z,24.15
2023-05-14T17:07:22.099Z,24.13
2023-05-14T17:09:51.405Z,24.12
2023-05-14T17:12:20.645Z,24.09
2023-05-14T17:14:50.201Z,24.08
2023-05-14T17:17:19.863Z,24.07
2023-05-14T17:19:49.284Z,24.07
2023-05-14T17:22:18.654Z,24.06
2023-05-14T17:24:47.970Z,24.07
2023-05-14T17:27:16.906Z,24.07
2023-05-14T17:29:46.140Z,24.09
2023-05-14T17:32:14.994Z,24.10
2023-05-14T17:34:43.995Z,24.11
2023-05-14T17:37:12.692Z,24.11
2023-05-14T17:39:42.192Z,24.12
2023-05-14T17:42:11.718Z,24.13
2023-05-14T17:44:41.000Z,24.14
2023-05-14T17:47:10.281Z,24.14
2023-05-14T17:49:39.084Z,24.13
2023-05-14T17:52:07.598Z,24.13
2023-05-14T17:54:35.880Z,24.13
2023-05-14T17:57:05.240Z,24.12
2023-05-14T17:59:34.040Z,24.11
2023-05-14T18:02:02.910Z,24.10
2023-05-14T18:04:31.763Z,24.08
2023-05-14T18:07:00.698Z,24.06
2023-05-14T18:09:29.303Z,24.05
2023-05-14T18:11:59.232Z,24.02
2023-05-14T18:14:28.701Z,24.00
2023-05-14T18:16:56.964Z,23.99
2023-05-14T18:19:26.751Z,23.97
2023-05-14T18:21:55.091Z,23.94
2023-05-14T18:24:23.700Z,23.94
2023-05-14T18:26:53.078Z,23.91
2023-05-14T18:29:22.444Z,23.90
2023-05-14T18:31:51.762Z,23.86
2023-05-14T18:34:20.928Z,23.85
2023-05-14T18:36:50.081Z,23.82
2023-05-14T18:39:19.160Z,23.81
2023-05-14T18:41:47.476Z,23.79
2023-05-14T18:44:16.208Z,23.77
2023-05-14T18:46:45.515Z,23.73
2023-05-14T18:49:14.870Z,23.71
2023-05-14T18:51:43.710Z,23.68
2023-05-14T18:54:12.480Z,23.66
2023-05-14T18:56:41.727Z,23.64
2023-05-14T18:59:11.040Z,23.62
2023-05-14T19:01:40.471Z,23.60
2023-05-14T19:04:09.997Z,23.57
2023-05-14T19:06:39.336Z,23.55
2023-05-14T19:09:07.861Z,23.52
2023-05-14T19:11:36.465Z,23.50
2023-05-14T19:14:05.883Z,23.48
2023-05-14T19:16:35.251Z,23.46
2023-05-14T19:19:04.321Z,23.44
2023-05-14T19:21:33.669Z,23.41
2023-05-14T19:24:02.844Z,23.39
2023-05-14T19:26:31.767Z,23.37
2023-05-14T19:29:00.380Z,23.34
2023-05-14T19:31:29.611Z,23.32
2023-05-14T19:33:58.991Z,23.30
2023-05-14T19:36:27.659Z,23.28
2023-05-14T19:38:56.494Z,23.26
2023-05-14T19:41:25.888Z,23.24
2023-05-14T19:43:55.108Z,23.22
2023-05-14T19:46:24.458Z,23.19
2023-05-14T19:48:53.720Z,23.17
2023-05-14T19:51:22.551Z,23.15
2023-05-14T19:53:51.486Z,23.14
2023-05-14T19:56:20.701Z,23.11
2023-05-14T19:58:53.609Z,23.11
2023-05-14T20:01:23.023Z,23.09
2023-05-14T20:03:51.900Z,23.08
2023-05-14T20:06:20.892Z,23.05
2023-05-14T20:08:49.027Z,23.04
2023-05-14T20:11:17.868Z,23.04
2023-05-14T20:13:46.634Z,23.03
2023-05-14T20:16:15.420Z,23.02
2023-05-14T20:18:44.756Z,22.99
2023-05-14T20:21:14.158Z,22.99
2023-05-14T20:23:43.515Z,22.98
2023-05-14T20:26:12.287Z,22.97
2023-05-14T20:28:41.653Z,22.95
2023-05-14T20:31:10.983Z,22.94
2023-05-14T20:33:40.193Z,22.93
2023-05-14T20:36:09.095Z,22.92
2023-05-14T20:38:38.551Z,22.91
2023-05-14T20:41:07.866Z,22.90
2023-05-14T20:43:37.018Z,22.89
2023-05-14T20:46:06.280Z,22.88
2023-05-14T20:48:35.169Z,22.88
2023-05-14T20:51:04.545Z,22.88
2023-05-14T20:53:33.863Z,22.87
2023-05-14T20:56:03.191Z,22.87
2023-05-14T20:58:32.054Z,22.86
2023-05-14T21:01:01.256Z,22.85
2023-05-14T21:03:30.581Z,22.85
2023-05-14T21:05:59.950Z,22.84
2023-05-14T21:08:29.591Z,22.84
2023-05-14T21:10:59.344Z,22.83
2023-05-14T21:13:28.681Z,22.84
2023-05-14T21:15:57.877Z,22.82
2023-05-14T21:18:26.969Z,22.81
2023-05-14T21:20:55.818Z,22.81
2023-05-14T21:23:25.094Z,22.80
2023-05-14T21:25:53.893Z,22.80
2023-05-14T21:28:23.104Z,22.78
2023-05-14T21:30:51.621Z,22.78
2023-05-14T21:33:20.348Z,22.77
2023-05-14T21:35:49.154Z,22.76
2023-05-14T21:38:18.545Z,22.76
2023-05-14T21:40:47.770Z,22.74
2023-05-14T21:43:17.082Z,22.74
2023-05-14T21:45:46.485Z,22.73
2023-05-14T21:48:15.978Z,22.73
2023-05-14T21:50:45.343Z,22.72
2023-05-14T21:53:14.561Z,22.70
2023-05-14T21:55:43.888Z,22.71
2023-05-14T21:58:13.203Z,22.71
2023-05-14T22:00:42.431Z,22.69
2023-05-14T22:03:11.332Z,22.69
2023-05-14T22:05:40.702Z,22.68
2023-05-14T22:08:09.469Z,22.66
2023-05-14T22:10:37.976Z,22.65
2023-05-14T22:13:10.407Z,22.65
2023-05-14T22:15:39.223Z,22.64
2023-05-14T22:18:08.681Z,22.64
2023-05-14T22:20:37.504Z,22.63
2023-05-14T22:23:06.414Z,22.62
2023-05-14T22:25:35.081Z,22.61
2023-05-14T22:28:03.777Z,22.59
2023-05-14T22:30:32.458Z,22.60
2023-05-14T22:33:01.313Z,22.57
2023-05-14T22:35:30.637Z,22.58
2023-05-14T22:37:59.401Z,22.57
2023-05-14T22:40:28.122Z,22.57
2023-05-14T22:42:57.430Z,22.55
2023-05-14T22:45:26.741Z,22.53
2023-05-14T22:47:56.396Z,22.54
2023-05-14T22:50:25.857Z,22.53
2023-05-14T22:52:55.329Z,22.53
2023-05-14T22:55:24.723Z,22.52
2023-05-14T22:57:53.582Z,22.51
2023-05-14T23:00:22.484Z,22.51
2023-05-14T23:02:51.871Z,22.51
2023-05-14T23:05:21.082Z,22.50
2023-05-14T23:07:49.846Z,22.50
2023-05-14T23:10:19.281Z,22.50
2023-05-14T23:12:48.671Z,22.50
2023-05-14T23:15:17.885Z,22.50
2023-05-14T23:17:47.141Z,22.48
2023-05-14T23:20:16.174Z,22.48
2023-05-14T23:22:45.445Z,22.48
2023-05-14T23:25:13.978Z,22.48
2023-05-14T23:27:42.604Z,22.47
2023-05-14T23:30:11.138Z,22.46
2023-05-14T23:32:39.248Z,22.46
2023-05-14T23:35:08.608Z,22.47
2023-05-14T23:37:38.010Z,22.45
2023-05-14T23:40:07.338Z,22.44
2023-05-14T23:42:36.197Z,22.44
2023-05-14T23:45:05.009Z,22.42
2023-05-14T23:47:34.329Z,22.42
2023-05-14T23:50:03.628Z,22.41
2023-05-14T23:52:32.587Z,22.42
2023-05-14T23:55:01.185Z,22.40
2023-05-14T23:57:29.794Z,22.40
2023-05-14T23:59:59.078Z,22.40
